Lenora, KS

11:59 PM CST on February 25, 2017 (GMT -0600)
1 East, 2.5 South | | Change Station

Elev 2467 ft 39.57 °N, 99.99 °W | Updated 4 minutes ago

Overcast
Overcast
30.0 °F
Feels Like 30.0 °F
N
2.0
Wind Variable Wind from SSE
Gusts 2.0 mph

Today
High -- | Low -- °F
--% Chance of Precip.
Yesterday
High -- | Low -- °F
Precip. -- in
Pressure 29.98 in
Visibility 10.0 miles
Clouds Overcast 9000 ft
Dew Point Not available.
Humidity Not available.
Rainfall Not available.
Snow Depth Not available.
7:18 AM 6:28 PM
Waning Crescent, 0% visible
METAR KHLC 260553Z AUTO 00000KT 10SM OVC090 M02/M09 A2993 RMK AO2 SLP152 T10221094 10061 21039 400891133 51010 TSNO
Pressure 29.98 in
Visibility 10.0 miles
Clouds Overcast 9000 ft
Dew Point Not available.
Humidity Not available.
Rainfall Not available.
Snow Depth Not available.
7:18 AM 6:28 PM
Waning Crescent, 0% visible
METAR KHLC 260553Z AUTO 00000KT 10SM OVC090 M02/M09 A2993 RMK AO2 SLP152 T10221094 10061 21039 400891133 51010 TSNO

Get Your Daily Forecast Email!

Thanks for signing up!

Be on the lookout for a verification email in your inbox.

You'll start receiving the daily forecast at 8 AM.

×

10-Day Weather Forecast

Almanac

Astronomy

Feb. 25, 2017 Rise Set
Actual Time
Civil Twilight
Nautical Twilight
Astronomical Twilight
Moon
Length of Visible Light
Length of Day
Tomorrow will be .
, % of the Moon is Illuminated

Today's Extremes

State Highs State Lows

Community

WunderPhotos

Upload Photos

1,962,540 photos uploaded!

WunderBlog® & News

Nearby

Air Quality

  Air Quality AQ Index Pollutant
Not available.

Snow Depth

Station Depth Elevation

Earthquake Activity

City Distance Mag. Time & Date
Minimum magnitude displayed is 2.5.

Coastal Water Temperatures

Place Temperature

Stations

Nearby Weather Stations

Station Location Temp. Windchill Dew Point Humidity Wind Precip. Elev Updated Type
                   

Watches & Warnings

There are currently no watches in effect.